sensor_id;sensor_type;location;lat;lon;timestamp;temperature;humidity
52656;SHT85;35474;51.032;6.998;2022-09-17T00:00:36;11.07;83.00
52656;SHT85;35474;51.032;6.998;2022-09-17T00:03:04;11.00;82.97
52656;SHT85;35474;51.032;6.998;2022-09-17T00:05:31;10.96;83.29
52656;SHT85;35474;51.032;6.998;2022-09-17T00:07:58;10.90;83.36
52656;SHT85;35474;51.032;6.998;2022-09-17T00:10:25;10.94;83.51
52656;SHT85;35474;51.032;6.998;2022-09-17T00:12:51;10.96;83.48
52656;SHT85;35474;51.032;6.998;2022-09-17T00:15:17;10.96;83.50
52656;SHT85;35474;51.032;6.998;2022-09-17T00:17:44;11.00;83.61
52656;SHT85;35474;51.032;6.998;2022-09-17T00:20:10;11.00;83.54
52656;SHT85;35474;51.032;6.998;2022-09-17T00:22:37;10.97;83.70
52656;SHT85;35474;51.032;6.998;2022-09-17T00:25:05;10.96;83.77
52656;SHT85;35474;51.032;6.998;2022-09-17T00:27:33;10.94;83.98
52656;SHT85;35474;51.032;6.998;2022-09-17T00:30:00;11.00;83.94
52656;SHT85;35474;51.032;6.998;2022-09-17T00:32:27;11.01;84.14
52656;SHT85;35474;51.032;6.998;2022-09-17T00:34:53;10.99;84.01
52656;SHT85;35474;51.032;6.998;2022-09-17T00:37:20;11.01;84.06
52656;SHT85;35474;51.032;6.998;2022-09-17T00:39:47;11.03;84.22
52656;SHT85;35474;51.032;6.998;2022-09-17T00:42:14;11.01;84.14
52656;SHT85;35474;51.032;6.998;2022-09-17T00:44:46;10.99;84.30
52656;SHT85;35474;51.032;6.998;2022-09-17T00:47:22;11.04;84.25
52656;SHT85;35474;51.032;6.998;2022-09-17T00:49:50;11.04;84.47
52656;SHT85;35474;51.032;6.998;2022-09-17T00:52:22;11.04;84.66
52656;SHT85;35474;51.032;6.998;2022-09-17T00:55:16;11.04;84.52
52656;SHT85;35474;51.032;6.998;2022-09-17T00:57:47;11.11;84.48
52656;SHT85;35474;51.032;6.998;2022-09-17T01:00:16;11.00;85.11
52656;SHT85;35474;51.032;6.998;2022-09-17T01:02:43;10.97;85.47
52656;SHT85;35474;51.032;6.998;2022-09-17T01:05:11;10.97;85.36
52656;SHT85;35474;51.032;6.998;2022-09-17T01:07:52;10.91;85.40
52656;SHT85;35474;51.032;6.998;2022-09-17T01:16:32;11.08;85.58
52656;SHT85;35474;51.032;6.998;2022-09-17T01:19:24;11.06;85.24
52656;SHT85;35474;51.032;6.998;2022-09-17T01:22:10;11.03;85.77
52656;SHT85;35474;51.032;6.998;2022-09-17T01:24:44;11.01;86.56
52656;SHT85;35474;51.032;6.998;2022-09-17T01:30:18;10.83;87.25
52656;SHT85;35474;51.032;6.998;2022-09-17T01:32:59;10.83;87.54
52656;SHT85;35474;51.032;6.998;2022-09-17T01:35:54;10.84;87.29
52656;SHT85;35474;51.032;6.998;2022-09-17T01:38:47;10.89;87.58
52656;SHT85;35474;51.032;6.998;2022-09-17T01:41:19;10.96;87.68
52656;SHT85;35474;51.032;6.998;2022-09-17T01:44:07;11.07;87.57
52656;SHT85;35474;51.032;6.998;2022-09-17T01:46:52;11.08;87.46
52656;SHT85;35474;51.032;6.998;2022-09-17T01:49:26;11.17;86.94
52656;SHT85;35474;51.032;6.998;2022-09-17T01:51:56;11.23;87.16
52656;SHT85;35474;51.032;6.998;2022-09-17T01:54:30;11.31;87.07
52656;SHT85;35474;51.032;6.998;2022-09-17T01:57:18;11.26;86.79
52656;SHT85;35474;51.032;6.998;2022-09-17T02:02:15;11.26;86.89
52656;SHT85;35474;51.032;6.998;2022-09-17T02:04:48;11.24;86.70
52656;SHT85;35474;51.032;6.998;2022-09-17T02:07:23;11.27;86.68
52656;SHT85;35474;51.032;6.998;2022-09-17T02:10:07;11.28;86.37
52656;SHT85;35474;51.032;6.998;2022-09-17T02:12:40;11.32;86.24
52656;SHT85;35474;51.032;6.998;2022-09-17T02:15:16;11.26;85.91
52656;SHT85;35474;51.032;6.998;2022-09-17T02:17:49;11.16;86.16
52656;SHT85;35474;51.032;6.998;2022-09-17T02:20:16;11.18;86.29
52656;SHT85;35474;51.032;6.998;2022-09-17T02:22:51;11.10;85.99
52656;SHT85;35474;51.032;6.998;2022-09-17T02:25:41;11.07;86.06
52656;SHT85;35474;51.032;6.998;2022-09-17T02:31:02;10.94;86.05
52656;SHT85;35474;51.032;6.998;2022-09-17T02:33:29;11.03;86.05
52656;SHT85;35474;51.032;6.998;2022-09-17T02:35:58;11.00;86.04
52656;SHT85;35474;51.032;6.998;2022-09-17T02:38:24;11.01;86.00
52656;SHT85;35474;51.032;6.998;2022-09-17T02:40:53;10.96;86.44
52656;SHT85;35474;51.032;6.998;2022-09-17T02:43:40;10.87;87.10
52656;SHT85;35474;51.032;6.998;2022-09-17T02:49:01;10.76;88.25
52656;SHT85;35474;51.032;6.998;2022-09-17T02:54:41;10.83;87.55
52656;SHT85;35474;51.032;6.998;2022-09-17T03:02:47;10.84;87.57
52656;SHT85;35474;51.032;6.998;2022-09-17T03:05:19;10.84;87.51
52656;SHT85;35474;51.032;6.998;2022-09-17T03:07:48;10.87;87.61
52656;SHT85;35474;51.032;6.998;2022-09-17T03:10:14;10.89;87.39
52656;SHT85;35474;51.032;6.998;2022-09-17T03:12:41;10.84;87.09
52656;SHT85;35474;51.032;6.998;2022-09-17T03:15:08;10.86;87.45
52656;SHT85;35474;51.032;6.998;2022-09-17T03:17:36;10.86;87.29
52656;SHT85;35474;51.032;6.998;2022-09-17T03:20:02;10.86;87.15
52656;SHT85;35474;51.032;6.998;2022-09-17T03:22:29;10.87;87.24
52656;SHT85;35474;51.032;6.998;2022-09-17T03:24:56;10.89;87.04
52656;SHT85;35474;51.032;6.998;2022-09-17T03:27:22;10.90;86.88
52656;SHT85;35474;51.032;6.998;2022-09-17T03:29:49;10.94;87.30
52656;SHT85;35474;51.032;6.998;2022-09-17T03:32:15;11.00;87.24
52656;SHT85;35474;51.032;6.998;2022-09-17T03:34:41;11.01;87.15
52656;SHT85;35474;51.032;6.998;2022-09-17T03:37:08;11.07;86.50
52656;SHT85;35474;51.032;6.998;2022-09-17T03:39:35;11.13;86.23
52656;SHT85;35474;51.032;6.998;2022-09-17T03:42:01;11.10;85.92
52656;SHT85;35474;51.032;6.998;2022-09-17T03:44:27;11.11;85.94
52656;SHT85;35474;51.032;6.998;2022-09-17T03:46:54;11.14;85.91
52656;SHT85;35474;51.032;6.998;2022-09-17T03:49:20;11.18;85.56
52656;SHT85;35474;51.032;6.998;2022-09-17T03:51:49;11.20;85.43
52656;SHT85;35474;51.032;6.998;2022-09-17T03:54:15;11.20;85.53
52656;SHT85;35474;51.032;6.998;2022-09-17T03:56:42;11.20;85.54
52656;SHT85;35474;51.032;6.998;2022-09-17T03:59:09;11.21;85.47
52656;SHT85;35474;51.032;6.998;2022-09-17T04:01:35;11.27;85.35
52656;SHT85;35474;51.032;6.998;2022-09-17T04:04:02;11.24;84.86
52656;SHT85;35474;51.032;6.998;2022-09-17T04:06:29;11.23;85.15
52656;SHT85;35474;51.032;6.998;2022-09-17T04:08:55;11.23;85.30
52656;SHT85;35474;51.032;6.998;2022-09-17T04:11:22;11.21;85.42
52656;SHT85;35474;51.032;6.998;2022-09-17T04:13:48;11.16;86.09
52656;SHT85;35474;51.032;6.998;2022-09-17T04:16:15;11.20;85.91
52656;SHT85;35474;51.032;6.998;2022-09-17T04:18:41;11.17;85.76
52656;SHT85;35474;51.032;6.998;2022-09-17T04:21:08;11.10;86.21
52656;SHT85;35474;51.032;6.998;2022-09-17T04:23:34;11.04;86.35
52656;SHT85;35474;51.032;6.998;2022-09-17T04:26:01;10.99;86.43
52656;SHT85;35474;51.032;6.998;2022-09-17T04:28:27;11.00;86.66
52656;SHT85;35474;51.032;6.998;2022-09-17T04:30:54;10.99;86.60
52656;SHT85;35474;51.032;6.998;2022-09-17T04:33:21;10.96;86.41
52656;SHT85;35474;51.032;6.998;2022-09-17T04:35:47;10.96;86.36
52656;SHT85;35474;51.032;6.998;2022-09-17T04:38:14;10.99;86.67
52656;SHT85;35474;51.032;6.998;2022-09-17T04:40:43;11.01;86.56
52656;SHT85;35474;51.032;6.998;2022-09-17T04:43:11;11.03;86.41
52656;SHT85;35474;51.032;6.998;2022-09-17T04:45:38;11.04;86.34
52656;SHT85;35474;51.032;6.998;2022-09-17T04:48:05;11.08;86.10
52656;SHT85;35474;51.032;6.998;2022-09-17T04:50:31;11.14;85.93
52656;SHT85;35474;51.032;6.998;2022-09-17T04:52:57;11.11;85.90
52656;SHT85;35474;51.032;6.998;2022-09-17T04:55:24;11.10;86.19
52656;SHT85;35474;51.032;6.998;2022-09-17T04:57:52;11.04;86.11
52656;SHT85;35474;51.032;6.998;2022-09-17T05:00:19;11.01;86.16
52656;SHT85;35474;51.032;6.998;2022-09-17T05:02:47;10.96;86.19
52656;SHT85;35474;51.032;6.998;2022-09-17T05:05:17;10.94;86.17
52656;SHT85;35474;51.032;6.998;2022-09-17T05:07:44;10.89;86.09
52656;SHT85;35474;51.032;6.998;2022-09-17T05:10:11;10.90;85.72
52656;SHT85;35474;51.032;6.998;2022-09-17T05:12:39;10.83;86.04
52656;SHT85;35474;51.032;6.998;2022-09-17T05:15:05;10.83;86.20
52656;SHT85;35474;51.032;6.998;2022-09-17T05:17:32;10.76;86.34
52656;SHT85;35474;51.032;6.998;2022-09-17T05:19:59;10.77;86.36
52656;SHT85;35474;51.032;6.998;2022-09-17T05:22:25;10.76;86.45
52656;SHT85;35474;51.032;6.998;2022-09-17T05:24:52;10.68;86.75
52656;SHT85;35474;51.032;6.998;2022-09-17T05:27:18;10.69;86.89
52656;SHT85;35474;51.032;6.998;2022-09-17T05:29:45;10.68;86.83
52656;SHT85;35474;51.032;6.998;2022-09-17T05:32:11;10.66;86.70
52656;SHT85;35474;51.032;6.998;2022-09-17T05:34:38;10.62;86.70
52656;SHT85;35474;51.032;6.998;2022-09-17T05:37:05;10.68;86.95
52656;SHT85;35474;51.032;6.998;2022-09-17T05:39:34;10.72;86.76
52656;SHT85;35474;51.032;6.998;2022-09-17T05:42:00;10.77;85.98
52656;SHT85;35474;51.032;6.998;2022-09-17T05:44:27;10.75;85.86
52656;SHT85;35474;51.032;6.998;2022-09-17T05:46:54;10.81;85.33
52656;SHT85;35474;51.032;6.998;2022-09-17T05:49:20;10.80;85.20
52656;SHT85;35474;51.032;6.998;2022-09-17T05:51:48;10.83;85.26
52656;SHT85;35474;51.032;6.998;2022-09-17T05:54:15;10.86;85.19
52656;SHT85;35474;51.032;6.998;2022-09-17T05:56:42;10.90;84.99
52656;SHT85;35474;51.032;6.998;2022-09-17T05:59:08;10.97;84.53
52656;SHT85;35474;51.032;6.998;2022-09-17T06:01:35;10.99;84.31
52656;SHT85;35474;51.032;6.998;2022-09-17T06:04:01;10.99;84.34
52656;SHT85;35474;51.032;6.998;2022-09-17T06:06:29;10.99;84.10
52656;SHT85;35474;51.032;6.998;2022-09-17T06:08:59;11.06;83.97
52656;SHT85;35474;51.032;6.998;2022-09-17T06:11:25;11.08;84.06
52656;SHT85;35474;51.032;6.998;2022-09-17T06:13:52;11.17;83.85
52656;SHT85;35474;51.032;6.998;2022-09-17T06:16:20;11.24;83.50
52656;SHT85;35474;51.032;6.998;2022-09-17T06:18:48;11.20;83.45
52656;SHT85;35474;51.032;6.998;2022-09-17T06:21:18;11.30;83.44
52656;SHT85;35474;51.032;6.998;2022-09-17T06:23:46;11.32;83.19
52656;SHT85;35474;51.032;6.998;2022-09-17T06:26:13;11.41;82.96
52656;SHT85;35474;51.032;6.998;2022-09-17T06:28:39;11.48;82.68
52656;SHT85;35474;51.032;6.998;2022-09-17T06:32:34;11.69;81.88
52656;SHT85;35474;51.032;6.998;2022-09-17T06:35:01;11.75;81.84
52656;SHT85;35474;51.032;6.998;2022-09-17T06:37:31;11.81;81.68
52656;SHT85;35474;51.032;6.998;2022-09-17T06:39:58;11.55;83.45
52656;SHT85;35474;51.032;6.998;2022-09-17T06:42:25;11.20;87.81
52656;SHT85;35474;51.032;6.998;2022-09-17T06:44:53;11.07;87.52
52656;SHT85;35474;51.032;6.998;2022-09-17T06:47:20;11.03;88.75
52656;SHT85;35474;51.032;6.998;2022-09-17T06:49:49;11.08;89.66
52656;SHT85;35474;51.032;6.998;2022-09-17T06:52:16;10.99;89.32
52656;SHT85;35474;51.032;6.998;2022-09-17T06:54:43;10.97;88.74
52656;SHT85;35474;51.032;6.998;2022-09-17T06:57:09;10.97;87.86
52656;SHT85;35474;51.032;6.998;2022-09-17T06:59:36;10.96;88.46
52656;SHT85;35474;51.032;6.998;2022-09-17T07:02:02;10.97;88.26
52656;SHT85;35474;51.032;6.998;2022-09-17T07:04:29;11.06;87.84
52656;SHT85;35474;51.032;6.998;2022-09-17T07:06:55;11.07;87.41
52656;SHT85;35474;51.032;6.998;2022-09-17T07:09:21;11.03;87.25
52656;SHT85;35474;51.032;6.998;2022-09-17T07:11:48;11.14;86.45
52656;SHT85;35474;51.032;6.998;2022-09-17T07:14:14;11.20;86.54
52656;SHT85;35474;51.032;6.998;2022-09-17T07:16:41;11.42;85.09
52656;SHT85;35474;51.032;6.998;2022-09-17T07:19:07;11.63;84.85
52656;SHT85;35474;51.032;6.998;2022-09-17T07:21:34;11.85;83.80
52656;SHT85;35474;51.032;6.998;2022-09-17T07:24:00;12.26;83.45
52656;SHT85;35474;51.032;6.998;2022-09-17T07:26:27;12.20;83.07
52656;SHT85;35474;51.032;6.998;2022-09-17T07:28:53;12.17;83.14
52656;SHT85;35474;51.032;6.998;2022-09-17T07:31:20;12.09;83.45
52656;SHT85;35474;51.032;6.998;2022-09-17T07:33:46;11.92;82.92
52656;SHT85;35474;51.032;6.998;2022-09-17T07:36:14;12.09;82.97
52656;SHT85;35474;51.032;6.998;2022-09-17T07:38:43;12.03;82.26
52656;SHT85;35474;51.032;6.998;2022-09-17T07:41:10;12.21;81.65
52656;SHT85;35474;51.032;6.998;2022-09-17T07:43:39;12.14;80.83
52656;SHT85;35474;51.032;6.998;2022-09-17T07:46:06;11.97;80.98
52656;SHT85;35474;51.032;6.998;2022-09-17T07:48:35;12.28;79.60
52656;SHT85;35474;51.032;6.998;2022-09-17T07:51:01;12.75;78.71
52656;SHT85;35474;51.032;6.998;2022-09-17T07:53:28;12.64;79.01
52656;SHT85;35474;51.032;6.998;2022-09-17T07:55:56;12.41;78.80
52656;SHT85;35474;51.032;6.998;2022-09-17T07:58:27;12.41;78.06
52656;SHT85;35474;51.032;6.998;2022-09-17T08:00:59;12.82;77.86
52656;SHT85;35474;51.032;6.998;2022-09-17T08:03:33;13.48;76.05
52656;SHT85;35474;51.032;6.998;2022-09-17T08:06:05;13.43;74.88
52656;SHT85;35474;51.032;6.998;2022-09-17T08:08:32;14.06;75.05
52656;SHT85;35474;51.032;6.998;2022-09-17T08:11:01;14.42;72.90
52656;SHT85;35474;51.032;6.998;2022-09-17T08:13:29;14.63;72.04
52656;SHT85;35474;51.032;6.998;2022-09-17T08:15:59;14.95;70.04
52656;SHT85;35474;51.032;6.998;2022-09-17T08:18:30;14.94;68.42
52656;SHT85;35474;51.032;6.998;2022-09-17T08:20:58;14.98;68.52
52656;SHT85;35474;51.032;6.998;2022-09-17T08:23:26;15.73;66.10
52656;SHT85;35474;51.032;6.998;2022-09-17T08:25:54;14.83;67.86
52656;SHT85;35474;51.032;6.998;2022-09-17T08:28:22;14.98;66.88
52656;SHT85;35474;51.032;6.998;2022-09-17T08:30:51;15.01;66.96
52656;SHT85;35474;51.032;6.998;2022-09-17T08:33:18;14.18;67.14
52656;SHT85;35474;51.032;6.998;2022-09-17T08:35:52;14.39;67.63
52656;SHT85;35474;51.032;6.998;2022-09-17T08:38:19;14.60;66.84
52656;SHT85;35474;51.032;6.998;2022-09-17T08:40:53;15.04;66.02
52656;SHT85;35474;51.032;6.998;2022-09-17T08:43:22;15.61;64.43
52656;SHT85;35474;51.032;6.998;2022-09-17T08:45:51;16.16;61.81
52656;SHT85;35474;51.032;6.998;2022-09-17T08:48:19;15.43;64.31
52656;SHT85;35474;51.032;6.998;2022-09-17T08:50:46;16.01;64.83
52656;SHT85;35474;51.032;6.998;2022-09-17T08:56:09;15.49;62.41
52656;SHT85;35474;51.032;6.998;2022-09-17T09:07:22;15.34;63.10
52656;SHT85;35474;51.032;6.998;2022-09-17T09:12:39;15.49;61.93
52656;SHT85;35474;51.032;6.998;2022-09-17T09:18:02;15.52;61.00
52656;SHT85;35474;51.032;6.998;2022-09-17T09:20:47;15.80;61.09
52656;SHT85;35474;51.032;6.998;2022-09-17T09:26:12;16.79;57.56
52656;SHT85;35474;51.032;6.998;2022-09-17T09:29:00;15.11;60.40
52656;SHT85;35474;51.032;6.998;2022-09-17T09:31:57;14.91;62.00
52656;SHT85;35474;51.032;6.998;2022-09-17T09:34:42;15.39;59.96
52656;SHT85;35474;51.032;6.998;2022-09-17T09:37:20;15.82;57.83
52656;SHT85;35474;51.032;6.998;2022-09-17T09:39:51;16.24;58.09
52656;SHT85;35474;51.032;6.998;2022-09-17T09:45:05;15.97;57.58
52656;SHT85;35474;51.032;6.998;2022-09-17T09:47:42;15.96;56.67
52656;SHT85;35474;51.032;6.998;2022-09-17T09:53:30;16.28;58.24
52656;SHT85;35474;51.032;6.998;2022-09-17T09:59:12;17.41;53.20
52656;SHT85;35474;51.032;6.998;2022-09-17T10:01:39;16.14;54.79
52656;SHT85;35474;51.032;6.998;2022-09-17T10:04:28;16.76;54.12
52656;SHT85;35474;51.032;6.998;2022-09-17T10:07:08;16.85;54.39
52656;SHT85;35474;51.032;6.998;2022-09-17T10:09:37;16.24;55.14
52656;SHT85;35474;51.032;6.998;2022-09-17T10:12:16;15.36;60.29
52656;SHT85;35474;51.032;6.998;2022-09-17T10:14:44;14.88;62.04
52656;SHT85;35474;51.032;6.998;2022-09-17T10:17:21;14.77;62.88
52656;SHT85;35474;51.032;6.998;2022-09-17T10:22:25;15.66;58.96
52656;SHT85;35474;51.032;6.998;2022-09-17T10:24:56;16.01;58.11
52656;SHT85;35474;51.032;6.998;2022-09-17T10:27:25;15.77;58.56
52656;SHT85;35474;51.032;6.998;2022-09-17T10:30:10;16.00;57.90
52656;SHT85;35474;51.032;6.998;2022-09-17T10:32:40;14.85;60.56
52656;SHT85;35474;51.032;6.998;2022-09-17T10:37:44;17.16;55.66
52656;SHT85;35474;51.032;6.998;2022-09-17T10:45:22;17.72;51.68
52656;SHT85;35474;51.032;6.998;2022-09-17T10:47:50;17.91;50.66
52656;SHT85;35474;51.032;6.998;2022-09-17T10:50:19;17.02;51.44
52656;SHT85;35474;51.032;6.998;2022-09-17T10:52:50;16.30;54.23
52656;SHT85;35474;51.032;6.998;2022-09-17T10:58:10;17.44;52.41
52656;SHT85;35474;51.032;6.998;2022-09-17T11:01:09;17.68;52.65
52656;SHT85;35474;51.032;6.998;2022-09-17T11:21:01;17.07;53.67
52656;SHT85;35474;51.032;6.998;2022-09-17T11:29:56;17.61;52.14
52656;SHT85;35474;51.032;6.998;2022-09-17T11:35:31;16.48;53.65
52656;SHT85;35474;51.032;6.998;2022-09-17T11:38:07;16.47;52.56
52656;SHT85;35474;51.032;6.998;2022-09-17T11:40:49;16.30;51.02
52656;SHT85;35474;51.032;6.998;2022-09-17T11:43:23;15.94;51.97
52656;SHT85;35474;51.032;6.998;2022-09-17T11:45:58;16.20;52.42
52656;SHT85;35474;51.032;6.998;2022-09-17T11:54:14;13.61;71.93
52656;SHT85;35474;51.032;6.998;2022-09-17T11:56:52;13.19;75.82
52656;SHT85;35474;51.032;6.998;2022-09-17T11:59:43;12.64;79.51
52656;SHT85;35474;51.032;6.998;2022-09-17T12:05:24;11.59;80.18
52656;SHT85;35474;51.032;6.998;2022-09-17T12:13:09;13.84;76.87
52656;SHT85;35474;51.032;6.998;2022-09-17T12:15:37;14.21;75.91
52656;SHT85;35474;51.032;6.998;2022-09-17T12:20:58;15.52;69.06
52656;SHT85;35474;51.032;6.998;2022-09-17T12:23:33;15.77;68.22
52656;SHT85;35474;51.032;6.998;2022-09-17T12:34:35;17.27;61.47
52656;SHT85;35474;51.032;6.998;2022-09-17T12:48:32;19.98;53.03
52656;SHT85;35474;51.032;6.998;2022-09-17T12:51:27;19.53;52.95
52656;SHT85;35474;51.032;6.998;2022-09-17T13:00:14;16.18;59.23
52656;SHT85;35474;51.032;6.998;2022-09-17T13:19:23;12.95;82.85
52656;SHT85;35474;51.032;6.998;2022-09-17T13:24:32;13.15;80.43
52656;SHT85;35474;51.032;6.998;2022-09-17T13:27:00;12.89;79.64
52656;SHT85;35474;51.032;6.998;2022-09-17T13:32:40;13.61;79.79
52656;SHT85;35474;51.032;6.998;2022-09-17T13:37:41;14.01;77.10
52656;SHT85;35474;51.032;6.998;2022-09-17T13:40:25;13.29;76.24
52656;SHT85;35474;51.032;6.998;2022-09-17T13:42:58;13.07;76.78
52656;SHT85;35474;51.032;6.998;2022-09-17T13:48:30;15.99;69.45
52656;SHT85;35474;51.032;6.998;2022-09-17T13:53:57;17.46;66.37
52656;SHT85;35474;51.032;6.998;2022-09-17T13:56:28;17.64;64.60
52656;SHT85;35474;51.032;6.998;2022-09-17T13:59:04;18.25;62.64
52656;SHT85;35474;51.032;6.998;2022-09-17T14:04:46;19.57;59.80
52656;SHT85;35474;51.032;6.998;2022-09-17T14:09:56;19.41;57.18
52656;SHT85;35474;51.032;6.998;2022-09-17T14:23:41;18.83;58.96
52656;SHT85;35474;51.032;6.998;2022-09-17T14:26:11;18.33;58.25
52656;SHT85;35474;51.032;6.998;2022-09-17T14:28:52;17.81;61.31
52656;SHT85;35474;51.032;6.998;2022-09-17T14:31:26;16.93;62.94
52656;SHT85;35474;51.032;6.998;2022-09-17T14:34:00;16.38;66.33
52656;SHT85;35474;51.032;6.998;2022-09-17T14:36:29;16.54;66.95
52656;SHT85;35474;51.032;6.998;2022-09-17T14:39:01;16.32;67.48
52656;SHT85;35474;51.032;6.998;2022-09-17T14:41:32;16.37;66.91
52656;SHT85;35474;51.032;6.998;2022-09-17T14:44:06;15.90;66.06
52656;SHT85;35474;51.032;6.998;2022-09-17T14:46:41;15.65;64.05
52656;SHT85;35474;51.032;6.998;2022-09-17T14:49:20;15.51;64.11
52656;SHT85;35474;51.032;6.998;2022-09-17T14:51:51;15.17;63.96
52656;SHT85;35474;51.032;6.998;2022-09-17T14:54:20;15.18;64.40
52656;SHT85;35474;51.032;6.998;2022-09-17T14:56:51;15.96;61.92
52656;SHT85;35474;51.032;6.998;2022-09-17T15:02:00;15.45;62.05
52656;SHT85;35474;51.032;6.998;2022-09-17T15:04:27;15.32;63.47
52656;SHT85;35474;51.032;6.998;2022-09-17T15:07:05;15.07;64.73
52656;SHT85;35474;51.032;6.998;2022-09-17T15:09:37;14.60;65.92
52656;SHT85;35474;51.032;6.998;2022-09-17T15:12:03;14.70;67.00
52656;SHT85;35474;51.032;6.998;2022-09-17T15:14:32;14.74;67.04
52656;SHT85;35474;51.032;6.998;2022-09-17T15:17:03;14.88;67.53
52656;SHT85;35474;51.032;6.998;2022-09-17T15:19:35;15.04;66.62
52656;SHT85;35474;51.032;6.998;2022-09-17T15:22:08;15.94;63.83
52656;SHT85;35474;51.032;6.998;2022-09-17T15:27:39;16.75;60.73
52656;SHT85;35474;51.032;6.998;2022-09-17T15:30:02;16.78;60.80
52656;SHT85;35474;51.032;6.998;2022-09-17T15:32:34;16.52;61.48
52656;SHT85;35474;51.032;6.998;2022-09-17T15:37:43;16.76;60.68
52656;SHT85;35474;51.032;6.998;2022-09-17T15:43:29;15.63;64.83
52656;SHT85;35474;51.032;6.998;2022-09-17T15:45:52;15.39;65.20
52656;SHT85;35474;51.032;6.998;2022-09-17T15:50:55;15.36;63.94
52656;SHT85;35474;51.032;6.998;2022-09-17T15:53:24;15.48;63.43
52656;SHT85;35474;51.032;6.998;2022-09-17T15:58:54;15.24;62.19
52656;SHT85;35474;51.032;6.998;2022-09-17T16:08:56;16.59;57.78
52656;SHT85;35474;51.032;6.998;2022-09-17T16:11:24;16.52;56.76
52656;SHT85;35474;51.032;6.998;2022-09-17T16:13:53;16.04;57.98
52656;SHT85;35474;51.032;6.998;2022-09-17T16:16:21;15.87;58.25
52656;SHT85;35474;51.032;6.998;2022-09-17T16:18:50;15.67;58.66
52656;SHT85;35474;51.032;6.998;2022-09-17T16:21:17;15.41;59.18
52656;SHT85;35474;51.032;6.998;2022-09-17T16:23:45;15.39;59.85
52656;SHT85;35474;51.032;6.998;2022-09-17T16:26:15;15.27;60.74
52656;SHT85;35474;51.032;6.998;2022-09-17T16:28:47;15.36;60.30
52656;SHT85;35474;51.032;6.998;2022-09-17T16:31:18;15.14;60.61
52656;SHT85;35474;51.032;6.998;2022-09-17T16:33:45;15.21;59.83
52656;SHT85;35474;51.032;6.998;2022-09-17T16:36:14;15.25;59.33
52656;SHT85;35474;51.032;6.998;2022-09-17T16:38:41;15.25;59.50
52656;SHT85;35474;51.032;6.998;2022-09-17T16:41:08;15.07;60.44
52656;SHT85;35474;51.032;6.998;2022-09-17T16:43:35;15.20;60.68
52656;SHT85;35474;51.032;6.998;2022-09-17T16:46:03;15.36;59.67
52656;SHT85;35474;51.032;6.998;2022-09-17T16:48:31;15.38;59.92
52656;SHT85;35474;51.032;6.998;2022-09-17T16:50:59;15.32;59.67
52656;SHT85;35474;51.032;6.998;2022-09-17T16:53:26;15.18;60.36
52656;SHT85;35474;51.032;6.998;2022-09-17T16:55:53;15.21;60.37
52656;SHT85;35474;51.032;6.998;2022-09-17T16:58:19;15.25;60.00
52656;SHT85;35474;51.032;6.998;2022-09-17T17:00:45;15.11;59.53
52656;SHT85;35474;51.032;6.998;2022-09-17T17:03:12;15.11;56.76
52656;SHT85;35474;51.032;6.998;2022-09-17T17:05:40;15.15;55.89
52656;SHT85;35474;51.032;6.998;2022-09-17T17:08:08;15.08;55.67
52656;SHT85;35474;51.032;6.998;2022-09-17T17:10:38;14.85;56.18
52656;SHT85;35474;51.032;6.998;2022-09-17T17:13:05;14.60;56.58
52656;SHT85;35474;51.032;6.998;2022-09-17T17:15:32;14.60;57.06
52656;SHT85;35474;51.032;6.998;2022-09-17T17:17:58;14.52;57.58
52656;SHT85;35474;51.032;6.998;2022-09-17T17:20:25;14.29;58.54
52656;SHT85;35474;51.032;6.998;2022-09-17T17:22:51;14.14;59.59
52656;SHT85;35474;51.032;6.998;2022-09-17T17:25:18;14.11;60.22
52656;SHT85;35474;51.032;6.998;2022-09-17T17:27:44;14.06;60.51
52656;SHT85;35474;51.032;6.998;2022-09-17T17:30:11;14.02;60.50
52656;SHT85;35474;51.032;6.998;2022-09-17T17:32:42;13.93;61.18
52656;SHT85;35474;51.032;6.998;2022-09-17T17:35:10;13.67;62.42
52656;SHT85;35474;51.032;6.998;2022-09-17T17:37:36;13.56;62.65
52656;SHT85;35474;51.032;6.998;2022-09-17T17:40:03;13.43;63.68
52656;SHT85;35474;51.032;6.998;2022-09-17T17:42:35;13.42;63.58
52656;SHT85;35474;51.032;6.998;2022-09-17T17:45:05;13.43;63.94
52656;SHT85;35474;51.032;6.998;2022-09-17T17:47:32;13.54;63.40
52656;SHT85;35474;51.032;6.998;2022-09-17T17:49:59;13.40;64.14
52656;SHT85;35474;51.032;6.998;2022-09-17T17:52:26;13.33;64.41
52656;SHT85;35474;51.032;6.998;2022-09-17T17:57:34;13.42;64.31
52656;SHT85;35474;51.032;6.998;2022-09-17T18:00:01;13.47;64.65
52656;SHT85;35474;51.032;6.998;2022-09-17T18:02:28;13.50;64.14
52656;SHT85;35474;51.032;6.998;2022-09-17T18:04:55;13.48;64.77
52656;SHT85;35474;51.032;6.998;2022-09-17T18:07:27;13.37;64.56
52656;SHT85;35474;51.032;6.998;2022-09-17T18:09:54;13.48;63.98
52656;SHT85;35474;51.032;6.998;2022-09-17T18:12:20;13.32;64.23
52656;SHT85;35474;51.032;6.998;2022-09-17T18:14:52;13.43;64.10
52656;SHT85;35474;51.032;6.998;2022-09-17T18:17:18;13.47;63.83
52656;SHT85;35474;51.032;6.998;2022-09-17T18:19:44;13.46;63.69
52656;SHT85;35474;51.032;6.998;2022-09-17T18:22:11;13.46;63.68
52656;SHT85;35474;51.032;6.998;2022-09-17T18:24:38;13.46;63.69
52656;SHT85;35474;51.032;6.998;2022-09-17T18:27:04;13.48;63.80
52656;SHT85;35474;51.032;6.998;2022-09-17T18:29:30;13.53;63.43
52656;SHT85;35474;51.032;6.998;2022-09-17T18:31:57;13.53;63.33
52656;SHT85;35474;51.032;6.998;2022-09-17T18:34:23;13.53;63.64
52656;SHT85;35474;51.032;6.998;2022-09-17T18:36:50;13.53;63.99
52656;SHT85;35474;51.032;6.998;2022-09-17T18:39:17;13.56;64.57
52656;SHT85;35474;51.032;6.998;2022-09-17T18:42:05;13.51;64.16
52656;SHT85;35474;51.032;6.998;2022-09-17T18:44:32;13.48;65.12
52656;SHT85;35474;51.032;6.998;2022-09-17T18:46:58;13.47;64.74
52656;SHT85;35474;51.032;6.998;2022-09-17T18:49:25;13.40;64.95
52656;SHT85;35474;51.032;6.998;2022-09-17T18:51:51;13.36;65.41
52656;SHT85;35474;51.032;6.998;2022-09-17T18:54:18;13.37;65.35
52656;SHT85;35474;51.032;6.998;2022-09-17T18:56:44;13.43;65.57
52656;SHT85;35474;51.032;6.998;2022-09-17T18:59:11;13.43;65.82
52656;SHT85;35474;51.032;6.998;2022-09-17T19:01:37;13.43;66.03
52656;SHT85;35474;51.032;6.998;2022-09-17T19:04:04;13.48;66.23
52656;SHT85;35474;51.032;6.998;2022-09-17T19:06:33;13.51;66.40
52656;SHT85;35474;51.032;6.998;2022-09-17T19:08:59;13.48;66.71
52656;SHT85;35474;51.032;6.998;2022-09-17T19:11:27;13.48;66.94
52656;SHT85;35474;51.032;6.998;2022-09-17T19:13:54;13.46;67.25
52656;SHT85;35474;51.032;6.998;2022-09-17T19:16:21;13.48;67.31
52656;SHT85;35474;51.032;6.998;2022-09-17T19:18:48;13.46;67.43
52656;SHT85;35474;51.032;6.998;2022-09-17T19:21:15;13.39;67.61